createdAt,value
2018-06-21T00:02:12.938Z,67.30
2018-06-21T00:04:42.578Z,67.10
2018-06-21T00:07:10.849Z,67.20
2018-06-21T00:09:39.157Z,67.20
2018-06-21T00:12:07.804Z,67.00
2018-06-21T00:14:36.103Z,67.00
2018-06-21T00:17:04.711Z,67.20
2018-06-21T00:19:33.127Z,67.20
2018-06-21T00:22:01.469Z,67.50
2018-06-21T00:24:29.971Z,67.50
2018-06-21T00:26:58.347Z,67.50
2018-06-21T00:29:26.917Z,67.50
2018-06-21T00:31:55.203Z,67.50
2018-06-21T00:34:23.512Z,67.60
2018-06-21T00:36:52.066Z,67.60
2018-06-21T00:39:20.348Z,67.90
2018-06-21T00:41:48.862Z,67.90
2018-06-21T00:44:17.149Z,67.80
2018-06-21T00:46:45.462Z,68.00
2018-06-21T00:49:13.781Z,68.10
2018-06-21T00:51:42.068Z,68.10
2018-06-21T00:54:10.417Z,68.20
2018-06-21T00:56:38.905Z,68.40
2018-06-21T00:59:07.259Z,68.50
2018-06-21T01:01:35.571Z,68.00
2018-06-21T01:04:04.073Z,68.90
2018-06-21T01:06:32.359Z,69.00
2018-06-21T01:09:00.896Z,69.30
2018-06-21T01:11:29.425Z,69.60
2018-06-21T01:13:58.012Z,71.00
2018-06-21T01:16:26.319Z,70.30
2018-06-21T01:18:54.654Z,70.50
2018-06-21T01:21:22.962Z,70.80
2018-06-21T01:23:51.298Z,70.90
2018-06-21T01:26:19.772Z,71.10
2018-06-21T01:28:48.034Z,71.10
2018-06-21T01:31:16.563Z,71.60
2018-06-21T01:33:45.059Z,71.60
2018-06-21T01:36:13.385Z,71.60
2018-06-21T01:38:41.724Z,71.50
2018-06-21T01:41:10.057Z,72.50
2018-06-21T01:46:07.025Z,71.60
2018-06-21T01:48:35.293Z,71.50
2018-06-21T01:53:31.646Z,72.00
2018-06-21T01:55:59.956Z,71.80
2018-06-21T01:58:28.214Z,71.30
2018-06-21T02:00:56.500Z,71.00
2018-06-21T02:03:24.954Z,70.90
2018-06-21T02:05:53.236Z,71.00
2018-06-21T02:08:21.500Z,71.30
2018-06-21T02:10:49.835Z,71.50
2018-06-21T02:13:18.110Z,71.70
2018-06-21T02:15:46.488Z,71.30
2018-06-21T02:18:14.973Z,71.70
2018-06-21T02:20:43.249Z,72.10
2018-06-21T02:23:11.585Z,72.30
2018-06-21T02:25:39.895Z,72.40
2018-06-21T02:28:08.147Z,72.60
2018-06-21T02:30:36.549Z,72.50
2018-06-21T02:33:04.927Z,72.60
2018-06-21T02:35:33.375Z,72.50
2018-06-21T02:38:01.902Z,72.70
2018-06-21T02:40:30.158Z,72.70
2018-06-21T02:42:58.553Z,72.90
2018-06-21T02:45:26.924Z,73.10
2018-06-21T02:47:55.196Z,72.90
2018-06-21T02:50:23.493Z,73.00
2018-06-21T02:52:51.854Z,73.20
2018-06-21T02:55:20.090Z,73.40
2018-06-21T02:57:48.362Z,73.30
2018-06-21T03:00:16.642Z,73.50
2018-06-21T03:02:45.038Z,73.80
2018-06-21T03:05:13.287Z,73.90
2018-06-21T03:07:41.550Z,74.00
2018-06-21T03:10:09.847Z,74.30
2018-06-21T03:12:38.099Z,74.50
2018-06-21T03:15:06.877Z,75.30
2018-06-21T03:17:35.818Z,74.80
2018-06-21T03:22:32.818Z,74.80
2018-06-21T03:25:01.162Z,74.60
2018-06-21T03:27:29.420Z,74.60
2018-06-21T03:29:57.972Z,74.60
2018-06-21T03:32:26.248Z,75.00
2018-06-21T03:34:54.571Z,74.90
2018-06-21T03:37:22.857Z,75.00
2018-06-21T03:39:51.146Z,74.80
2018-06-21T03:42:19.676Z,74.90
2018-06-21T03:44:48.069Z,74.70
2018-06-21T03:47:16.372Z,74.60
2018-06-21T03:49:45.325Z,75.80
2018-06-21T03:52:13.901Z,75.10
2018-06-21T03:54:42.492Z,75.00
2018-06-21T03:57:10.935Z,75.50
2018-06-21T03:59:39.231Z,75.10
2018-06-21T04:02:07.594Z,74.80
2018-06-21T04:04:35.840Z,74.80
2018-06-21T04:07:04.118Z,74.80
2018-06-21T04:12:14.015Z,74.80
2018-06-21T04:14:42.294Z,74.50
2018-06-21T04:17:10.634Z,74.50
2018-06-21T04:19:39.396Z,74.50
2018-06-21T04:22:07.785Z,74.50
2018-06-21T04:24:36.589Z,74.60
2018-06-21T04:27:05.050Z,74.50
2018-06-21T04:29:33.345Z,74.50
2018-06-21T04:32:01.615Z,74.10
2018-06-21T04:34:29.876Z,74.30
2018-06-21T04:36:58.201Z,74.30
2018-06-21T04:39:26.424Z,73.90
2018-06-21T04:41:54.768Z,74.10
2018-06-21T04:44:23.056Z,73.80
2018-06-21T04:46:51.532Z,73.60
2018-06-21T04:49:19.822Z,73.10
2018-06-21T04:51:48.482Z,73.30
2018-06-21T04:54:17.387Z,73.20
2018-06-21T04:56:45.858Z,72.60
2018-06-21T04:59:14.170Z,71.80
2018-06-21T05:01:42.604Z,71.50
2018-06-21T05:04:11.164Z,71.30
2018-06-21T05:06:39.612Z,71.30
2018-06-21T05:09:09.829Z,70.50
2018-06-21T05:11:38.185Z,71.10
2018-06-21T05:14:06.597Z,70.60
2018-06-21T05:16:35.180Z,70.60
2018-06-21T05:19:03.609Z,70.10
2018-06-21T05:21:32.223Z,69.30
2018-06-21T05:24:01.347Z,69.30
2018-06-21T05:26:29.609Z,69.30
2018-06-21T05:28:58.123Z,69.00
2018-06-21T05:31:26.453Z,68.70
2018-06-21T05:33:54.966Z,68.50
2018-06-21T05:36:23.297Z,68.60
2018-06-21T05:38:51.758Z,67.70
2018-06-21T05:41:20.067Z,67.80
2018-06-21T05:43:48.360Z,67.50
2018-06-21T05:46:16.680Z,67.70
2018-06-21T05:48:45.331Z,66.60
2018-06-21T05:51:13.694Z,66.70
2018-06-21T05:53:42.069Z,66.40
2018-06-21T05:56:10.358Z,66.60
2018-06-21T05:58:39.583Z,66.00
2018-06-21T06:01:07.884Z,65.90
2018-06-21T06:03:36.188Z,65.60
2018-06-21T06:06:04.456Z,65.30
2018-06-21T06:08:32.717Z,65.20
2018-06-21T06:11:02.175Z,65.10
2018-06-21T06:13:30.512Z,65.00
2018-06-21T06:15:58.813Z,64.20
2018-06-21T06:18:27.193Z,64.00
2018-06-21T06:20:55.560Z,63.10
2018-06-21T06:25:52.063Z,62.70
2018-06-21T06:28:20.376Z,62.10
2018-06-21T06:33:17.220Z,61.60
2018-06-21T06:35:45.534Z,61.20
2018-06-21T06:38:13.802Z,61.10
2018-06-21T06:40:42.099Z,60.70
2018-06-21T06:43:10.357Z,59.70
2018-06-21T06:45:39.394Z,59.70
2018-06-21T06:48:08.262Z,59.20
2018-06-21T06:50:36.589Z,59.20
2018-06-21T06:53:05.246Z,58.60
2018-06-21T06:55:33.551Z,58.90
2018-06-21T06:58:02.442Z,58.80
2018-06-21T07:00:31.338Z,59.00
2018-06-21T07:03:00.130Z,58.60
2018-06-21T07:05:28.696Z,58.20
2018-06-21T07:07:57.201Z,58.30
2018-06-21T07:10:29.140Z,57.80
2018-06-21T07:12:58.024Z,57.50
2018-06-21T07:15:26.678Z,57.40
2018-06-21T07:17:55.426Z,57.60
2018-06-21T07:20:24.592Z,57.50
2018-06-21T07:22:55.537Z,57.90
2018-06-21T07:35:09.138Z,57.80
2018-06-21T07:37:37.394Z,56.40
2018-06-21T07:40:06.388Z,56.40
2018-06-21T07:42:35.028Z,56.50
2018-06-21T07:45:03.598Z,56.00
2018-06-21T07:47:32.213Z,55.70
2018-06-21T07:50:00.780Z,55.50
2018-06-21T07:52:29.591Z,55.30
2018-06-21T07:54:59.583Z,55.10
2018-06-21T07:57:28.421Z,55.40
2018-06-21T08:04:53.695Z,55.10
2018-06-21T08:07:22.716Z,55.30
2018-06-21T08:09:51.351Z,54.80
2018-06-21T08:12:20.227Z,54.90
2018-06-21T08:14:49.092Z,54.00
2018-06-21T08:17:17.599Z,54.30
2018-06-21T08:19:46.029Z,53.70
2018-06-21T08:22:14.892Z,53.90
2018-06-21T08:24:43.670Z,53.70
2018-06-21T08:27:12.303Z,53.40
2018-06-21T08:29:41.203Z,52.40
2018-06-21T08:32:09.862Z,53.10
2018-06-21T08:34:39.500Z,52.40
2018-06-21T08:37:08.312Z,52.10
2018-06-21T08:39:36.864Z,52.50
2018-06-21T08:42:05.493Z,52.90
2018-06-21T08:44:34.487Z,53.20
2018-06-21T08:47:03.425Z,53.40
2018-06-21T08:49:32.370Z,54.50
2018-06-21T08:52:01.285Z,55.30
2018-06-21T08:54:30.354Z,55.10
2018-06-21T08:56:58.995Z,55.20
2018-06-21T08:59:27.827Z,55.00
2018-06-21T09:01:56.312Z,54.00
2018-06-21T09:04:25.195Z,54.80
2018-06-21T09:06:53.772Z,53.60
2018-06-21T09:09:22.601Z,52.00
2018-06-21T09:11:51.454Z,52.00
2018-06-21T09:14:20.309Z,52.00
2018-06-21T09:16:49.280Z,51.80
2018-06-21T09:19:18.495Z,52.00
2018-06-21T09:21:47.444Z,52.20
2018-06-21T09:24:16.344Z,51.70
2018-06-21T09:26:45.235Z,50.80
2018-06-21T09:29:13.856Z,51.10
2018-06-21T09:31:42.115Z,51.30
2018-06-21T09:34:14.430Z,51.70
2018-06-21T09:36:44.448Z,51.70
2018-06-21T09:39:18.618Z,51.40
2018-06-21T09:41:52.433Z,50.70
2018-06-21T09:44:26.723Z,50.70
2018-06-21T09:47:00.551Z,50.80
2018-06-21T09:49:30.197Z,51.10
2018-06-21T09:52:00.441Z,50.90
2018-06-21T09:54:29.460Z,51.10
2018-06-21T09:56:58.689Z,51.90
2018-06-21T09:59:27.871Z,52.50
2018-06-21T10:01:56.347Z,52.40
2018-06-21T10:04:25.323Z,52.20
2018-06-21T10:06:53.965Z,52.80
2018-06-21T10:09:22.882Z,52.90
2018-06-21T10:11:51.522Z,53.00
2018-06-21T10:14:20.548Z,52.00
2018-06-21T10:16:49.529Z,51.40
2018-06-21T10:19:18.570Z,51.60
2018-06-21T10:21:48.569Z,51.60
2018-06-21T10:24:17.446Z,51.50
2018-06-21T10:26:46.288Z,52.00
2018-06-21T10:29:14.915Z,52.90
2018-06-21T10:31:43.332Z,52.20
2018-06-21T10:34:12.311Z,51.20
2018-06-21T10:36:40.897Z,50.60
2018-06-21T10:39:11.091Z,51.10
2018-06-21T10:41:40.274Z,50.90
2018-06-21T10:44:08.942Z,50.50
2018-06-21T10:46:38.730Z,49.50
2018-06-21T10:49:07.668Z,48.70
2018-06-21T10:51:36.627Z,48.20
2018-06-21T10:54:05.550Z,47.70
2018-06-21T10:56:34.562Z,48.30
2018-06-21T10:59:03.448Z,47.50
2018-06-21T11:01:32.671Z,47.40
2018-06-21T11:04:01.665Z,47.20
2018-06-21T11:06:30.246Z,45.90
2018-06-21T11:08:58.859Z,46.00
2018-06-21T11:11:27.552Z,46.20
2018-06-21T11:13:56.528Z,46.70
2018-06-21T11:16:25.610Z,46.90
2018-06-21T11:18:54.678Z,47.70
2018-06-21T11:21:23.969Z,47.70
2018-06-21T11:23:52.657Z,47.90
2018-06-21T11:26:21.521Z,47.60
2018-06-21T11:28:50.016Z,47.50
2018-06-21T11:31:18.907Z,48.10
2018-06-21T11:33:47.685Z,48.10
2018-06-21T11:36:16.387Z,45.80
2018-06-21T11:38:45.399Z,45.00
2018-06-21T11:41:14.303Z,45.30
2018-06-21T11:43:42.775Z,44.30
2018-06-21T11:46:11.647Z,44.60
2018-06-21T11:48:40.553Z,44.70
2018-06-21T11:51:09.411Z,45.00
2018-06-21T11:53:38.295Z,45.80
2018-06-21T11:56:06.938Z,45.50
2018-06-21T11:58:35.865Z,46.20
2018-06-21T12:01:04.491Z,47.20
2018-06-21T12:03:33.077Z,48.20
2018-06-21T12:06:01.634Z,49.30
2018-06-21T12:08:34.671Z,50.00
2018-06-21T12:11:03.201Z,50.20
2018-06-21T12:13:32.021Z,50.60
2018-06-21T12:16:00.861Z,50.30
2018-06-21T12:18:29.597Z,49.70
2018-06-21T12:20:58.644Z,49.70
2018-06-21T12:23:30.860Z,49.60
2018-06-21T12:25:59.829Z,49.60
2018-06-21T12:28:29.003Z,50.10
2018-06-21T12:30:58.143Z,49.10
2018-06-21T12:33:26.756Z,49.70
2018-06-21T12:35:55.316Z,50.00
2018-06-21T12:38:24.208Z,50.70
2018-06-21T12:40:53.205Z,51.20
2018-06-21T12:43:24.754Z,51.40
2018-06-21T12:45:53.333Z,52.10
2018-06-21T12:51:01.533Z,52.00
2018-06-21T12:53:31.426Z,51.70
2018-06-21T12:56:00.336Z,52.30
2018-06-21T12:58:29.747Z,52.30
2018-06-21T13:00:58.665Z,51.70
2018-06-21T13:03:27.773Z,52.10
2018-06-21T13:05:56.727Z,51.70
2018-06-21T13:08:36.648Z,51.00
2018-06-21T13:11:18.681Z,50.50
2018-06-21T13:16:32.227Z,49.20
2018-06-21T13:19:01.187Z,48.50
2018-06-21T13:21:30.018Z,48.50
2018-06-21T13:24:18.367Z,47.00
2018-06-21T13:26:47.337Z,47.20
2018-06-21T13:29:16.249Z,47.30
2018-06-21T13:31:45.133Z,46.70
2018-06-21T13:34:14.063Z,46.20
2018-06-21T13:36:42.973Z,44.50
2018-06-21T13:39:11.848Z,43.90
2018-06-21T13:41:41.181Z,44.00
2018-06-21T13:44:10.050Z,44.90
2018-06-21T13:46:38.930Z,46.50
2018-06-21T13:49:08.383Z,47.10
2018-06-21T13:51:37.249Z,47.00
2018-06-21T13:54:09.075Z,46.10
2018-06-21T13:56:38.309Z,48.60
2018-06-21T13:59:07.221Z,51.30
2018-06-21T14:01:36.189Z,53.50
2018-06-21T14:04:04.583Z,54.70
2018-06-21T14:06:34.550Z,55.60
2018-06-21T14:09:03.075Z,56.10
2018-06-21T14:11:31.533Z,55.60
2018-06-21T14:14:00.095Z,54.90
2018-06-21T14:16:29.009Z,55.00
2018-06-21T14:18:58.089Z,53.70
2018-06-21T14:21:27.087Z,52.50
2018-06-21T14:23:56.471Z,50.80
2018-06-21T14:26:26.195Z,49.00
2018-06-21T14:28:55.751Z,46.00
2018-06-21T14:31:25.775Z,42.40
2018-06-21T14:33:54.762Z,41.70
2018-06-21T14:36:23.649Z,40.10
2018-06-21T14:38:52.717Z,38.70
2018-06-21T14:41:22.055Z,39.80
2018-06-21T14:43:51.149Z,40.80
2018-06-21T14:46:20.369Z,41.70
2018-06-21T14:48:49.552Z,43.10
2018-06-21T14:51:24.560Z,43.90
2018-06-21T14:53:57.310Z,43.90
2018-06-21T14:56:26.619Z,44.70
2018-06-21T14:58:56.677Z,45.50
2018-06-21T15:01:25.053Z,46.10
2018-06-21T15:03:54.541Z,45.60
2018-06-21T15:06:23.929Z,45.00
2018-06-21T15:08:52.897Z,44.90
2018-06-21T15:11:22.863Z,45.50
2018-06-21T15:13:52.514Z,45.60
2018-06-21T15:16:23.437Z,45.60
2018-06-21T15:18:52.900Z,45.70
2018-06-21T15:21:32.164Z,45.60
2018-06-21T15:24:00.875Z,46.10
2018-06-21T15:26:29.200Z,44.80
2018-06-21T15:28:58.613Z,45.00
2018-06-21T15:31:27.312Z,44.70
2018-06-21T15:33:56.689Z,44.50
2018-06-21T15:36:25.017Z,44.30
2018-06-21T15:38:57.907Z,44.70
2018-06-21T15:41:31.096Z,43.10
2018-06-21T15:43:59.856Z,41.90
2018-06-21T15:46:28.141Z,42.10
2018-06-21T15:48:57.109Z,42.00
2018-06-21T15:51:25.465Z,41.20
2018-06-21T15:53:54.415Z,40.60
2018-06-21T15:56:23.162Z,41.00
2018-06-21T15:58:54.877Z,41.00
2018-06-21T16:01:23.846Z,40.80
2018-06-21T16:03:52.209Z,41.10
2018-06-21T16:06:20.613Z,41.60
2018-06-21T16:08:54.412Z,41.50
2018-06-21T16:11:26.868Z,41.50
2018-06-21T16:13:56.348Z,41.40
2018-06-21T16:16:25.336Z,41.40
2018-06-21T16:18:54.465Z,41.20
2018-06-21T16:21:32.607Z,41.40
2018-06-21T16:24:01.626Z,41.80
2018-06-21T16:26:30.099Z,41.80
2018-06-21T16:29:00.175Z,41.80
2018-06-21T16:31:29.787Z,41.70
2018-06-21T16:33:58.613Z,41.50
2018-06-21T16:36:46.360Z,41.80
2018-06-21T16:42:07.319Z,41.70
2018-06-21T16:44:36.112Z,41.80
2018-06-21T16:47:24.194Z,42.40
2018-06-21T16:50:01.201Z,42.50
2018-06-21T16:52:29.731Z,43.20
2018-06-21T16:54:58.137Z,43.30
2018-06-21T16:57:26.799Z,43.60
2018-06-21T16:59:55.883Z,43.80
2018-06-21T17:02:24.941Z,44.10
2018-06-21T17:04:56.717Z,44.50
2018-06-21T17:07:25.085Z,44.50
2018-06-21T17:09:54.073Z,44.50
2018-06-21T17:12:22.911Z,44.60
2018-06-21T17:14:51.267Z,44.90
2018-06-21T17:17:19.721Z,45.10
2018-06-21T17:19:48.159Z,45.10
2018-06-21T17:22:16.954Z,45.90
2018-06-21T17:24:46.412Z,46.20
2018-06-21T17:27:14.908Z,46.90
2018-06-21T17:29:46.993Z,47.30
2018-06-21T17:32:18.411Z,47.60
2018-06-21T17:34:47.451Z,47.80
2018-06-21T17:37:16.266Z,47.90
2018-06-21T17:39:44.785Z,47.80
2018-06-21T17:42:13.338Z,47.60
2018-06-21T17:44:45.859Z,47.60
2018-06-21T17:47:14.392Z,47.70
2018-06-21T17:49:49.519Z,47.60
2018-06-21T17:52:19.432Z,47.80
2018-06-21T17:54:47.924Z,48.10
2018-06-21T17:57:16.490Z,48.20
2018-06-21T17:59:44.845Z,48.60
2018-06-21T18:02:13.236Z,48.80
2018-06-21T18:04:41.764Z,49.30
2018-06-21T18:07:10.280Z,49.70
2018-06-21T18:09:38.836Z,50.20
2018-06-21T18:12:07.234Z,50.60
2018-06-21T18:14:35.812Z,51.20
2018-06-21T18:17:04.402Z,52.20
2018-06-21T18:19:33.249Z,53.00
2018-06-21T18:22:02.040Z,53.90
2018-06-21T18:24:30.536Z,54.40
2018-06-21T18:26:59.258Z,54.50
2018-06-21T18:29:27.799Z,54.90
2018-06-21T18:31:56.678Z,55.30
2018-06-21T18:34:25.940Z,55.80
2018-06-21T18:36:54.359Z,56.20
2018-06-21T18:39:23.041Z,56.60
2018-06-21T18:41:51.487Z,57.00
2018-06-21T18:44:19.998Z,57.20
2018-06-21T18:46:48.534Z,57.60
2018-06-21T18:49:16.857Z,57.80
2018-06-21T18:51:45.199Z,57.50
2018-06-21T18:54:13.650Z,57.40
2018-06-21T18:56:42.842Z,57.60
2018-06-21T18:59:11.444Z,57.90
2018-06-21T19:01:39.778Z,57.90
2018-06-21T19:04:08.406Z,57.80
2018-06-21T19:06:42.208Z,57.60
2018-06-21T19:09:15.832Z,57.80
2018-06-21T19:11:49.388Z,57.90
2018-06-21T19:14:17.878Z,58.40
2018-06-21T19:16:46.389Z,58.20
2018-06-21T19:19:15.374Z,58.50
2018-06-21T19:21:43.696Z,58.50
2018-06-21T19:24:12.114Z,58.00
2018-06-21T19:26:40.500Z,58.40
2018-06-21T19:29:09.207Z,57.50
2018-06-21T19:31:37.806Z,57.80
2018-06-21T19:34:06.291Z,57.60
2018-06-21T19:36:34.733Z,57.10
2018-06-21T19:39:04.632Z,57.20
2018-06-21T19:41:33.075Z,57.30
2018-06-21T19:44:02.356Z,57.40
2018-06-21T19:46:30.845Z,57.20
2018-06-21T19:48:59.197Z,56.70
2018-06-21T19:51:28.209Z,57.00
2018-06-21T19:53:56.573Z,56.70
2018-06-21T19:56:26.528Z,56.80
2018-06-21T19:58:54.908Z,56.80
2018-06-21T20:01:23.302Z,57.00
2018-06-21T20:03:55.201Z,57.30
2018-06-21T20:06:23.755Z,57.20
2018-06-21T20:08:52.033Z,57.60
2018-06-21T20:11:25.873Z,56.80
2018-06-21T20:13:54.196Z,56.40
2018-06-21T20:16:23.225Z,56.70
2018-06-21T20:18:51.637Z,56.80
2018-06-21T20:21:20.876Z,57.10
2018-06-21T20:23:50.513Z,57.00
2018-06-21T20:26:19.581Z,56.90
2018-06-21T20:28:48.178Z,57.20
2018-06-21T20:31:17.601Z,57.30
2018-06-21T20:33:47.081Z,57.40
2018-06-21T20:36:16.010Z,56.80
2018-06-21T20:38:44.435Z,57.00
2018-06-21T20:41:13.289Z,57.30
2018-06-21T20:43:42.051Z,57.80
2018-06-21T20:46:12.781Z,57.90
2018-06-21T20:48:41.180Z,58.10
2018-06-21T20:51:09.537Z,58.20
2018-06-21T20:53:37.932Z,58.40
2018-06-21T20:56:07.129Z,58.60
2018-06-21T20:58:37.070Z,58.70
2018-06-21T21:01:07.562Z,59.00
2018-06-21T21:03:36.383Z,59.30
2018-06-21T21:06:06.284Z,59.20
2018-06-21T21:11:09.620Z,59.50
2018-06-21T21:13:38.496Z,59.70
2018-06-21T21:16:07.236Z,59.70
2018-06-21T21:18:36.001Z,59.80
2018-06-21T21:21:04.398Z,60.00
2018-06-21T21:23:34.476Z,59.90
2018-06-21T21:26:03.241Z,59.00
2018-06-21T21:28:31.955Z,57.10
2018-06-21T21:31:03.466Z,55.90
2018-06-21T21:33:31.877Z,54.50
2018-06-21T21:36:02.202Z,54.00
2018-06-21T21:38:33.397Z,54.10
2018-06-21T21:41:03.909Z,54.20
2018-06-21T21:43:32.369Z,53.00
2018-06-21T21:46:00.781Z,52.10
2018-06-21T21:48:29.326Z,51.40
2018-06-21T21:50:57.892Z,50.50
2018-06-21T21:53:34.102Z,50.00
2018-06-21T21:56:03.035Z,49.60
2018-06-21T21:58:31.839Z,49.40
2018-06-21T22:01:00.778Z,47.70
2018-06-21T22:03:29.431Z,47.60
2018-06-21T22:05:57.738Z,47.10
2018-06-21T22:08:26.331Z,47.10
2018-06-21T22:10:54.982Z,46.60
2018-06-21T22:13:23.911Z,46.50
2018-06-21T22:15:55.959Z,46.30
2018-06-21T22:18:24.435Z,46.00
2018-06-21T22:20:52.883Z,45.80
2018-06-21T22:23:30.089Z,45.90
2018-06-21T22:28:31.713Z,46.00
2018-06-21T22:31:00.658Z,46.30
2018-06-21T22:33:29.801Z,46.70
2018-06-21T22:36:38.099Z,46.10
2018-06-21T22:39:09.269Z,45.70
2018-06-21T22:41:38.836Z,45.60
2018-06-21T22:44:11.225Z,45.50
2018-06-21T22:46:44.676Z,45.60
2018-06-21T22:49:18.642Z,45.90
2018-06-21T22:51:52.577Z,46.40
2018-06-21T22:54:21.177Z,46.10
2018-06-21T22:56:49.611Z,46.30
2018-06-21T22:59:22.210Z,45.80
2018-06-21T23:01:50.586Z,45.80
2018-06-21T23:04:18.863Z,46.90
2018-06-21T23:06:47.143Z,46.50
2018-06-21T23:09:15.549Z,45.50
2018-06-21T23:11:43.901Z,45.30
2018-06-21T23:23:57.379Z,45.30
2018-06-21T23:26:25.693Z,45.00
2018-06-21T23:28:54.120Z,44.90
2018-06-21T23:31:27.292Z,44.90
2018-06-21T23:33:55.808Z,45.30
2018-06-21T23:36:24.146Z,45.50
2018-06-21T23:38:52.524Z,45.60
2018-06-21T23:41:20.924Z,45.90
2018-06-21T23:43:49.271Z,45.80
2018-06-21T23:46:17.613Z,45.40
2018-06-21T23:48:45.883Z,45.60
2018-06-21T23:51:14.314Z,45.80
2018-06-21T23:53:42.575Z,46.10
2018-06-21T23:56:10.830Z,45.50
2018-06-21T23:58:39.092Z,46.20
